sensor_id;sensor_type;location;lat;lon;timestamp;pressure;altitude;pressure_sealevel;temperature;humidity
3464;BME280;3551;41.578;24.706;2023-04-29T00:01:29;91244.13;;;5.68;80.62
3464;BME280;3551;41.578;24.706;2023-04-29T00:03:56;91245.81;;;5.54;81.22
3464;BME280;3551;41.578;24.706;2023-04-29T00:06:22;91244.38;;;5.60;81.73
3464;BME280;3551;41.578;24.706;2023-04-29T00:08:49;91249.22;;;5.54;81.29
3464;BME280;3551;41.578;24.706;2023-04-29T00:11:18;91247.59;;;5.46;81.03
3464;BME280;3551;41.578;24.706;2023-04-29T00:13:44;91245.56;;;5.36;81.48
3464;BME280;3551;41.578;24.706;2023-04-29T00:16:11;91240.53;;;5.05;82.46
3464;BME280;3551;41.578;24.706;2023-04-29T00:18:38;91243.06;;;5.21;82.31
3464;BME280;3551;41.578;24.706;2023-04-29T00:21:04;91245.50;;;5.33;81.80
3464;BME280;3551;41.578;24.706;2023-04-29T00:23:31;91248.16;;;5.59;79.77
3464;BME280;3551;41.578;24.706;2023-04-29T00:25:58;91255.28;;;5.55;79.96
3464;BME280;3551;41.578;24.706;2023-04-29T00:28:26;91250.81;;;5.33;80.83
3464;BME280;3551;41.578;24.706;2023-04-29T00:30:53;91250.22;;;5.20;81.57
3464;BME280;3551;41.578;24.706;2023-04-29T00:33:20;91245.09;;;5.31;81.29
3464;BME280;3551;41.578;24.706;2023-04-29T00:35:46;91243.88;;;5.25;82.52
3464;BME280;3551;41.578;24.706;2023-04-29T00:38:13;91246.94;;;5.27;82.14
3464;BME280;3551;41.578;24.706;2023-04-29T00:40:40;91246.53;;;5.25;82.03
3464;BME280;3551;41.578;24.706;2023-04-29T00:43:07;91250.59;;;5.19;81.48
3464;BME280;3551;41.578;24.706;2023-04-29T00:45:35;91234.13;;;5.32;81.10
3464;BME280;3551;41.578;24.706;2023-04-29T00:48:02;91239.88;;;5.38;80.40
3464;BME280;3551;41.578;24.706;2023-04-29T00:50:29;91233.03;;;5.33;80.39
3464;BME280;3551;41.578;24.706;2023-04-29T00:52:56;91235.34;;;5.38;80.21
3464;BME280;3551;41.578;24.706;2023-04-29T00:55:23;91233.59;;;5.49;80.64
3464;BME280;3551;41.578;24.706;2023-04-29T00:57:50;91234.97;;;4.87;82.81
3464;BME280;3551;41.578;24.706;2023-04-29T01:00:18;91233.09;;;5.14;81.78
3464;BME280;3551;41.578;24.706;2023-04-29T01:02:46;91237.88;;;5.28;80.69
3464;BME280;3551;41.578;24.706;2023-04-29T01:05:13;91237.56;;;5.33;79.87
3464;BME280;3551;41.578;24.706;2023-04-29T01:07:42;91245.56;;;4.87;82.39
3464;BME280;3551;41.578;24.706;2023-04-29T01:10:13;91238.09;;;4.93;82.22
3464;BME280;3551;41.578;24.706;2023-04-29T01:12:40;91247.09;;;4.88;82.54
3464;BME280;3551;41.578;24.706;2023-04-29T01:15:15;91248.13;;;5.06;81.82
3464;BME280;3551;41.578;24.706;2023-04-29T01:17:45;91233.78;;;5.34;81.25
3464;BME280;3551;41.578;24.706;2023-04-29T01:20:16;91244.28;;;5.27;81.32
3464;BME280;3551;41.578;24.706;2023-04-29T01:22:43;91237.94;;;5.08;81.42
3464;BME280;3551;41.578;24.706;2023-04-29T01:25:11;91247.56;;;5.17;81.77
3464;BME280;3551;41.578;24.706;2023-04-29T01:27:39;91241.78;;;4.88;82.56
3464;BME280;3551;41.578;24.706;2023-04-29T01:30:09;91242.88;;;4.84;82.09
3464;BME280;3551;41.578;24.706;2023-04-29T01:32:40;91243.16;;;5.01;81.09
3464;BME280;3551;41.578;24.706;2023-04-29T01:35:10;91245.16;;;4.85;81.48
3464;BME280;3551;41.578;24.706;2023-04-29T01:37:45;91246.25;;;5.07;80.27
3464;BME280;3551;41.578;24.706;2023-04-29T01:40:17;91248.19;;;5.10;80.89
3464;BME280;3551;41.578;24.706;2023-04-29T01:42:45;91245.50;;;4.84;82.05
3464;BME280;3551;41.578;24.706;2023-04-29T01:45:15;91247.28;;;4.99;81.93
3464;BME280;3551;41.578;24.706;2023-04-29T01:47:43;91245.84;;;5.05;81.89
3464;BME280;3551;41.578;24.706;2023-04-29T01:50:10;91246.53;;;4.76;82.16
3464;BME280;3551;41.578;24.706;2023-04-29T01:52:37;91247.50;;;4.68;82.57
3464;BME280;3551;41.578;24.706;2023-04-29T01:55:04;91248.31;;;4.94;81.04
3464;BME280;3551;41.578;24.706;2023-04-29T01:57:32;91246.84;;;4.97;79.91
3464;BME280;3551;41.578;24.706;2023-04-29T01:59:59;91245.06;;;4.78;80.78
3464;BME280;3551;41.578;24.706;2023-04-29T02:02:26;91239.06;;;4.85;80.68
3464;BME280;3551;41.578;24.706;2023-04-29T02:04:53;91243.25;;;4.86;80.98
3464;BME280;3551;41.578;24.706;2023-04-29T02:07:20;91241.56;;;4.74;82.35
3464;BME280;3551;41.578;24.706;2023-04-29T02:09:47;91245.31;;;4.73;83.13
3464;BME280;3551;41.578;24.706;2023-04-29T02:12:13;91242.16;;;4.87;82.02
3464;BME280;3551;41.578;24.706;2023-04-29T02:14:41;91239.44;;;4.83;81.45
3464;BME280;3551;41.578;24.706;2023-04-29T02:17:08;91242.69;;;4.50;82.63
3464;BME280;3551;41.578;24.706;2023-04-29T02:19:35;91244.13;;;4.25;83.74
3464;BME280;3551;41.578;24.706;2023-04-29T02:22:01;91233.41;;;4.41;82.97
3464;BME280;3551;41.578;24.706;2023-04-29T02:24:28;91235.56;;;4.54;81.81
3464;BME280;3551;41.578;24.706;2023-04-29T02:26:55;91227.31;;;4.60;81.15
3464;BME280;3551;41.578;24.706;2023-04-29T02:29:23;91233.22;;;4.72;80.69
3464;BME280;3551;41.578;24.706;2023-04-29T02:31:52;91236.19;;;4.48;81.38
3464;BME280;3551;41.578;24.706;2023-04-29T02:34:18;91226.75;;;4.70;81.12
3464;BME280;3551;41.578;24.706;2023-04-29T02:36:45;91224.38;;;4.65;81.04
3464;BME280;3551;41.578;24.706;2023-04-29T02:39:11;91223.03;;;4.51;81.94
3464;BME280;3551;41.578;24.706;2023-04-29T02:41:38;91230.84;;;4.67;81.61
3464;BME280;3551;41.578;24.706;2023-04-29T02:44:06;91230.38;;;4.62;81.58
3464;BME280;3551;41.578;24.706;2023-04-29T02:46:33;91236.19;;;4.71;80.69
3464;BME280;3551;41.578;24.706;2023-04-29T02:49:01;91222.97;;;4.71;80.82
3464;BME280;3551;41.578;24.706;2023-04-29T02:51:29;91221.47;;;4.73;80.72
3464;BME280;3551;41.578;24.706;2023-04-29T02:53:55;91224.59;;;4.79;80.65
3464;BME280;3551;41.578;24.706;2023-04-29T02:56:22;91224.09;;;4.70;80.89
3464;BME280;3551;41.578;24.706;2023-04-29T02:58:49;91224.91;;;4.51;82.14
3464;BME280;3551;41.578;24.706;2023-04-29T03:01:16;91217.75;;;4.51;82.17
3464;BME280;3551;41.578;24.706;2023-04-29T03:03:42;91221.31;;;4.63;81.79
3464;BME280;3551;41.578;24.706;2023-04-29T03:06:10;91224.03;;;4.43;81.96
3464;BME280;3551;41.578;24.706;2023-04-29T03:08:37;91231.84;;;4.36;82.41
3464;BME280;3551;41.578;24.706;2023-04-29T03:11:04;91224.50;;;4.49;81.44
3464;BME280;3551;41.578;24.706;2023-04-29T03:13:31;91221.97;;;4.56;80.88
3464;BME280;3551;41.578;24.706;2023-04-29T03:15:57;91232.84;;;4.51;81.11
3464;BME280;3551;41.578;24.706;2023-04-29T03:18:24;91235.03;;;4.68;80.22
3464;BME280;3551;41.578;24.706;2023-04-29T03:20:51;91238.56;;;4.53;81.50
3464;BME280;3551;41.578;24.706;2023-04-29T03:23:19;91229.03;;;4.48;82.41
3464;BME280;3551;41.578;24.706;2023-04-29T03:25:46;91230.75;;;4.60;82.12
3464;BME280;3551;41.578;24.706;2023-04-29T03:28:13;91241.09;;;4.69;81.64
3464;BME280;3551;41.578;24.706;2023-04-29T03:30:40;91235.56;;;4.54;82.45
3464;BME280;3551;41.578;24.706;2023-04-29T03:33:07;91235.59;;;4.35;83.41
3464;BME280;3551;41.578;24.706;2023-04-29T03:35:33;91232.63;;;4.60;82.30
3464;BME280;3551;41.578;24.706;2023-04-29T03:38:00;91230.06;;;4.44;82.41
3464;BME280;3551;41.578;24.706;2023-04-29T03:40:28;91235.66;;;4.62;81.56
3464;BME280;3551;41.578;24.706;2023-04-29T03:42:55;91243.34;;;4.67;81.33
3464;BME280;3551;41.578;24.706;2023-04-29T03:45:22;91241.81;;;4.66;80.93
3464;BME280;3551;41.578;24.706;2023-04-29T03:47:48;91237.03;;;4.52;81.90
3464;BME280;3551;41.578;24.706;2023-04-29T03:50:16;91240.84;;;4.32;82.54
3464;BME280;3551;41.578;24.706;2023-04-29T03:52:42;91238.47;;;4.49;82.41
3464;BME280;3551;41.578;24.706;2023-04-29T03:55:09;91241.41;;;4.64;81.59
3464;BME280;3551;41.578;24.706;2023-04-29T03:57:38;91240.16;;;4.58;81.35
3464;BME280;3551;41.578;24.706;2023-04-29T04:00:05;91243.88;;;4.76;80.67
3464;BME280;3551;41.578;24.706;2023-04-29T04:02:33;91237.38;;;4.73;80.35
3464;BME280;3551;41.578;24.706;2023-04-29T04:05:00;91238.78;;;4.67;80.52
3464;BME280;3551;41.578;24.706;2023-04-29T04:07:27;91241.16;;;4.72;80.52
3464;BME280;3551;41.578;24.706;2023-04-29T04:09:53;91242.69;;;4.73;80.44
3464;BME280;3551;41.578;24.706;2023-04-29T04:12:20;91237.84;;;4.56;81.18
3464;BME280;3551;41.578;24.706;2023-04-29T04:14:48;91234.94;;;4.61;81.35
3464;BME280;3551;41.578;24.706;2023-04-29T04:17:14;91238.63;;;4.57;82.54
3464;BME280;3551;41.578;24.706;2023-04-29T04:19:41;91234.38;;;4.75;83.46
3464;BME280;3551;41.578;24.706;2023-04-29T04:22:08;91238.00;;;5.12;83.22
3464;BME280;3551;41.578;24.706;2023-04-29T04:24:36;91246.28;;;5.33;81.52
3464;BME280;3551;41.578;24.706;2023-04-29T04:27:02;91243.81;;;5.47;80.35
3464;BME280;3551;41.578;24.706;2023-04-29T04:29:29;91239.22;;;5.44;79.03
3464;BME280;3551;41.578;24.706;2023-04-29T04:31:57;91240.13;;;6.11;78.48
3464;BME280;3551;41.578;24.706;2023-04-29T04:34:24;91244.56;;;6.74;76.27
3464;BME280;3551;41.578;24.706;2023-04-29T04:36:51;91241.06;;;7.10;72.47
3464;BME280;3551;41.578;24.706;2023-04-29T04:39:18;91239.59;;;7.74;69.85
3464;BME280;3551;41.578;24.706;2023-04-29T04:41:44;91247.88;;;7.55;69.31
3464;BME280;3551;41.578;24.706;2023-04-29T04:44:11;91245.44;;;7.32;69.48
3464;BME280;3551;41.578;24.706;2023-04-29T04:46:38;91243.56;;;6.89;70.80
3464;BME280;3551;41.578;24.706;2023-04-29T04:49:07;91245.31;;;6.71;72.11
3464;BME280;3551;41.578;24.706;2023-04-29T04:51:34;91247.66;;;6.43;73.43
3464;BME280;3551;41.578;24.706;2023-04-29T04:54:01;91244.94;;;6.36;73.47
3464;BME280;3551;41.578;24.706;2023-04-29T04:56:28;91249.03;;;6.30;73.73
3464;BME280;3551;41.578;24.706;2023-04-29T04:58:54;91247.06;;;6.60;74.28
3464;BME280;3551;41.578;24.706;2023-04-29T05:01:21;91244.75;;;6.55;75.56
3464;BME280;3551;41.578;24.706;2023-04-29T05:03:48;91241.84;;;6.67;74.74
3464;BME280;3551;41.578;24.706;2023-04-29T05:06:16;91240.81;;;6.78;73.98
3464;BME280;3551;41.578;24.706;2023-04-29T05:08:42;91241.47;;;6.68;75.75
3464;BME280;3551;41.578;24.706;2023-04-29T05:11:14;91234.25;;;6.69;76.04
3464;BME280;3551;41.578;24.706;2023-04-29T05:13:41;91240.75;;;6.75;75.53
3464;BME280;3551;41.578;24.706;2023-04-29T05:16:07;91235.75;;;6.66;75.41
3464;BME280;3551;41.578;24.706;2023-04-29T05:18:34;91246.69;;;6.21;78.33
3464;BME280;3551;41.578;24.706;2023-04-29T05:21:01;91253.00;;;6.46;77.95
3464;BME280;3551;41.578;24.706;2023-04-29T05:23:29;91259.72;;;7.14;76.48
3464;BME280;3551;41.578;24.706;2023-04-29T05:25:56;91251.31;;;7.56;75.34
3464;BME280;3551;41.578;24.706;2023-04-29T05:28:22;91264.13;;;8.12;73.06
3464;BME280;3551;41.578;24.706;2023-04-29T05:30:49;91263.66;;;7.85;70.32
3464;BME280;3551;41.578;24.706;2023-04-29T05:33:16;91255.53;;;7.64;70.93
3464;BME280;3551;41.578;24.706;2023-04-29T05:35:43;91264.72;;;8.56;69.40
3464;BME280;3551;41.578;24.706;2023-04-29T05:38:09;91267.09;;;8.89;66.08
3464;BME280;3551;41.578;24.706;2023-04-29T05:40:37;91262.56;;;9.32;66.82
3464;BME280;3551;41.578;24.706;2023-04-29T05:43:04;91262.94;;;9.52;64.90
3464;BME280;3551;41.578;24.706;2023-04-29T05:45:31;91263.66;;;9.98;63.48
3464;BME280;3551;41.578;24.706;2023-04-29T05:47:58;91261.00;;;9.91;63.76
3464;BME280;3551;41.578;24.706;2023-04-29T05:50:24;91246.38;;;10.42;62.79
3464;BME280;3551;41.578;24.706;2023-04-29T05:52:51;91239.78;;;10.60;60.98
3464;BME280;3551;41.578;24.706;2023-04-29T05:55:18;91232.97;;;10.45;61.88
3464;BME280;3551;41.578;24.706;2023-04-29T05:57:47;91229.97;;;10.40;59.43
3464;BME280;3551;41.578;24.706;2023-04-29T06:00:13;91235.94;;;10.68;59.61
3464;BME280;3551;41.578;24.706;2023-04-29T06:02:40;91237.81;;;10.79;59.85
3464;BME280;3551;41.578;24.706;2023-04-29T06:05:10;91236.78;;;10.55;59.17
3464;BME280;3551;41.578;24.706;2023-04-29T06:07:36;91237.69;;;10.96;59.52
3464;BME280;3551;41.578;24.706;2023-04-29T06:10:04;91235.06;;;10.89;59.21
3464;BME280;3551;41.578;24.706;2023-04-29T06:12:31;91225.84;;;10.97;58.56
3464;BME280;3551;41.578;24.706;2023-04-29T06:14:59;91218.59;;;11.49;56.79
3464;BME280;3551;41.578;24.706;2023-04-29T06:17:26;91220.13;;;11.91;55.64
3464;BME280;3551;41.578;24.706;2023-04-29T06:19:53;91207.47;;;11.95;55.13
3464;BME280;3551;41.578;24.706;2023-04-29T06:22:20;91210.84;;;11.58;56.66
3464;BME280;3551;41.578;24.706;2023-04-29T06:24:47;91214.75;;;11.91;56.96
3464;BME280;3551;41.578;24.706;2023-04-29T06:27:14;91206.28;;;12.33;56.54
3464;BME280;3551;41.578;24.706;2023-04-29T06:29:41;91206.75;;;12.55;55.99
3464;BME280;3551;41.578;24.706;2023-04-29T06:32:09;91197.84;;;12.65;56.09
3464;BME280;3551;41.578;24.706;2023-04-29T06:34:35;91203.16;;;12.69;55.26
3464;BME280;3551;41.578;24.706;2023-04-29T06:37:03;91199.69;;;12.38;56.06
3464;BME280;3551;41.578;24.706;2023-04-29T06:39:30;91204.84;;;11.88;59.38
3464;BME280;3551;41.578;24.706;2023-04-29T06:41:57;91204.34;;;11.56;59.42
3464;BME280;3551;41.578;24.706;2023-04-29T06:44:23;91195.19;;;11.53;59.13
3464;BME280;3551;41.578;24.706;2023-04-29T06:46:50;91194.34;;;11.15;59.27
3464;BME280;3551;41.578;24.706;2023-04-29T06:49:18;91203.81;;;11.30;58.63
3464;BME280;3551;41.578;24.706;2023-04-29T06:51:46;91207.47;;;11.47;57.44
3464;BME280;3551;41.578;24.706;2023-04-29T06:54:12;91213.00;;;12.15;57.31
3464;BME280;3551;41.578;24.706;2023-04-29T06:56:39;91200.28;;;12.53;57.82
3464;BME280;3551;41.578;24.706;2023-04-29T06:59:06;91203.16;;;12.69;55.23
3464;BME280;3551;41.578;24.706;2023-04-29T07:01:32;91204.03;;;12.89;56.48
3464;BME280;3551;41.578;24.706;2023-04-29T07:03:59;91205.81;;;13.52;53.88
3464;BME280;3551;41.578;24.706;2023-04-29T07:06:27;91202.72;;;13.77;51.00
3464;BME280;3551;41.578;24.706;2023-04-29T07:08:54;91201.56;;;13.28;49.90
3464;BME280;3551;41.578;24.706;2023-04-29T07:11:21;91204.69;;;12.96;50.05
3464;BME280;3551;41.578;24.706;2023-04-29T07:13:48;91194.31;;;13.25;49.22
3464;BME280;3551;41.578;24.706;2023-04-29T07:16:15;91189.41;;;12.33;50.76
3464;BME280;3551;41.578;24.706;2023-04-29T07:18:44;91194.16;;;12.82;50.17
3464;BME280;3551;41.578;24.706;2023-04-29T07:21:11;91187.09;;;12.35;50.98
3464;BME280;3551;41.578;24.706;2023-04-29T07:23:39;91194.03;;;12.63;50.37
3464;BME280;3551;41.578;24.706;2023-04-29T07:26:09;91199.91;;;13.11;49.37
3464;BME280;3551;41.578;24.706;2023-04-29T07:28:36;91203.50;;;13.01;48.89
3464;BME280;3551;41.578;24.706;2023-04-29T07:31:02;91196.44;;;12.84;50.29
3464;BME280;3551;41.578;24.706;2023-04-29T07:33:29;91184.63;;;12.17;50.47
3464;BME280;3551;41.578;24.706;2023-04-29T07:35:56;91191.16;;;12.47;50.59
3464;BME280;3551;41.578;24.706;2023-04-29T07:38:22;91188.66;;;12.32;50.75
3464;BME280;3551;41.578;24.706;2023-04-29T07:40:50;91191.53;;;12.49;50.95
3464;BME280;3551;41.578;24.706;2023-04-29T07:43:17;91189.38;;;12.93;50.27
3464;BME280;3551;41.578;24.706;2023-04-29T07:45:44;91192.25;;;12.53;50.04
3464;BME280;3551;41.578;24.706;2023-04-29T07:48:11;91182.09;;;12.67;50.37
3464;BME280;3551;41.578;24.706;2023-04-29T07:50:37;91187.22;;;13.62;49.83
3464;BME280;3551;41.578;24.706;2023-04-29T07:53:04;91182.38;;;13.53;48.00
3464;BME280;3551;41.578;24.706;2023-04-29T07:55:31;91175.53;;;13.48;47.41
3464;BME280;3551;41.578;24.706;2023-04-29T07:57:59;91170.59;;;13.90;46.13
3464;BME280;3551;41.578;24.706;2023-04-29T08:00:26;91173.00;;;13.84;46.75
3464;BME280;3551;41.578;24.706;2023-04-29T08:02:53;91165.53;;;13.72;47.18
3464;BME280;3551;41.578;24.706;2023-04-29T08:05:20;91169.59;;;14.23;45.82
3464;BME280;3551;41.578;24.706;2023-04-29T08:07:47;91157.44;;;14.38;44.15
3464;BME280;3551;41.578;24.706;2023-04-29T08:10:14;91156.91;;;14.99;45.33
3464;BME280;3551;41.578;24.706;2023-04-29T08:12:41;91164.19;;;15.34;44.82
3464;BME280;3551;41.578;24.706;2023-04-29T08:15:12;91151.97;;;15.62;44.09
3464;BME280;3551;41.578;24.706;2023-04-29T08:17:39;91157.53;;;15.87;43.22
3464;BME280;3551;41.578;24.706;2023-04-29T08:20:06;91152.00;;;16.07;41.60
3464;BME280;3551;41.578;24.706;2023-04-29T08:22:33;91143.22;;;16.19;44.30
3464;BME280;3551;41.578;24.706;2023-04-29T08:25:00;91148.34;;;15.36;41.44
3464;BME280;3551;41.578;24.706;2023-04-29T08:27:29;91149.78;;;15.41;42.10
3464;BME280;3551;41.578;24.706;2023-04-29T08:29:55;91149.44;;;15.71;41.78
3464;BME280;3551;41.578;24.706;2023-04-29T08:32:25;91143.13;;;16.22;41.72
3464;BME280;3551;41.578;24.706;2023-04-29T08:34:51;91136.69;;;16.45;41.74
3464;BME280;3551;41.578;24.706;2023-04-29T08:37:18;91131.38;;;16.58;42.69
3464;BME280;3551;41.578;24.706;2023-04-29T08:39:45;91135.25;;;16.57;41.85
3464;BME280;3551;41.578;24.706;2023-04-29T08:42:12;91134.03;;;15.88;40.33
3464;BME280;3551;41.578;24.706;2023-04-29T08:44:38;91131.56;;;16.22;40.94
3464;BME280;3551;41.578;24.706;2023-04-29T08:47:06;91123.72;;;16.11;41.03
3464;BME280;3551;41.578;24.706;2023-04-29T08:49:34;91120.41;;;16.20;39.25
3464;BME280;3551;41.578;24.706;2023-04-29T08:52:02;91113.78;;;15.96;39.60
3464;BME280;3551;41.578;24.706;2023-04-29T08:54:30;91123.78;;;15.50;42.10
3464;BME280;3551;41.578;24.706;2023-04-29T08:56:56;91107.84;;;15.40;40.13
3464;BME280;3551;41.578;24.706;2023-04-29T08:59:24;91115.03;;;15.14;39.75
3464;BME280;3551;41.578;24.706;2023-04-29T09:01:50;91104.44;;;14.71;41.17
3464;BME280;3551;41.578;24.706;2023-04-29T09:04:21;91102.06;;;15.09;40.65
3464;BME280;3551;41.578;24.706;2023-04-29T09:06:52;91104.66;;;15.61;40.69
3464;BME280;3551;41.578;24.706;2023-04-29T09:09:22;91103.38;;;15.65;40.17
3464;BME280;3551;41.578;24.706;2023-04-29T09:11:49;91102.97;;;15.51;39.52
3464;BME280;3551;41.578;24.706;2023-04-29T09:14:16;91090.38;;;15.76;39.38
3464;BME280;3551;41.578;24.706;2023-04-29T09:16:45;91082.16;;;15.96;39.63
3464;BME280;3551;41.578;24.706;2023-04-29T09:19:24;91085.13;;;16.14;39.34
3464;BME280;3551;41.578;24.706;2023-04-29T09:21:55;91075.78;;;15.29;39.66
3464;BME280;3551;41.578;24.706;2023-04-29T09:24:23;91075.19;;;15.83;41.43
3464;BME280;3551;41.578;24.706;2023-04-29T09:26:51;91068.72;;;15.80;39.03
3464;BME280;3551;41.578;24.706;2023-04-29T09:29:17;91064.63;;;15.88;40.48
3464;BME280;3551;41.578;24.706;2023-04-29T09:31:44;91063.31;;;15.80;39.72
3464;BME280;3551;41.578;24.706;2023-04-29T09:34:11;91055.28;;;16.34;40.73
3464;BME280;3551;41.578;24.706;2023-04-29T09:36:39;91060.47;;;16.00;39.40
3464;BME280;3551;41.578;24.706;2023-04-29T09:39:08;91054.84;;;16.36;39.58
3464;BME280;3551;41.578;24.706;2023-04-29T09:41:38;91050.66;;;15.93;38.30
3464;BME280;3551;41.578;24.706;2023-04-29T09:44:05;91050.44;;;16.00;38.45
3464;BME280;3551;41.578;24.706;2023-04-29T09:46:32;91046.41;;;16.46;38.86
3464;BME280;3551;41.578;24.706;2023-04-29T09:49:01;91051.59;;;16.28;37.98
3464;BME280;3551;41.578;24.706;2023-04-29T09:51:28;91040.16;;;16.37;38.38
3464;BME280;3551;41.578;24.706;2023-04-29T09:53:56;91028.00;;;15.46;39.00
3464;BME280;3551;41.578;24.706;2023-04-29T09:56:24;91020.19;;;15.51;39.93
3464;BME280;3551;41.578;24.706;2023-04-29T09:58:53;91021.97;;;15.99;39.63
3464;BME280;3551;41.578;24.706;2023-04-29T10:01:21;91014.97;;;16.14;39.39
3464;BME280;3551;41.578;24.706;2023-04-29T10:03:48;91016.03;;;16.04;39.30
3464;BME280;3551;41.578;24.706;2023-04-29T10:06:15;91015.75;;;16.27;38.71
3464;BME280;3551;41.578;24.706;2023-04-29T10:08:42;91009.88;;;16.04;38.80
3464;BME280;3551;41.578;24.706;2023-04-29T10:11:09;91003.69;;;15.91;39.13
3464;BME280;3551;41.578;24.706;2023-04-29T10:13:38;90996.94;;;16.11;38.19
3464;BME280;3551;41.578;24.706;2023-04-29T10:16:10;91005.50;;;16.48;38.79
3464;BME280;3551;41.578;24.706;2023-04-29T10:18:40;90992.97;;;16.41;38.67
3464;BME280;3551;41.578;24.706;2023-04-29T10:21:10;90991.91;;;16.51;37.82
3464;BME280;3551;41.578;24.706;2023-04-29T10:23:37;90994.06;;;16.44;37.64
3464;BME280;3551;41.578;24.706;2023-04-29T10:26:04;91001.00;;;15.91;38.83
3464;BME280;3551;41.578;24.706;2023-04-29T10:28:32;91004.75;;;16.47;38.75
3464;BME280;3551;41.578;24.706;2023-04-29T10:31:01;90986.13;;;15.86;38.06
3464;BME280;3551;41.578;24.706;2023-04-29T10:33:30;90987.66;;;16.12;39.13
3464;BME280;3551;41.578;24.706;2023-04-29T10:35:57;90989.47;;;16.57;38.49
3464;BME280;3551;41.578;24.706;2023-04-29T10:38:27;90989.84;;;16.93;38.12
3464;BME280;3551;41.578;24.706;2023-04-29T10:40:55;90982.44;;;16.72;36.78
3464;BME280;3551;41.578;24.706;2023-04-29T10:43:24;90984.38;;;16.71;37.60
3464;BME280;3551;41.578;24.706;2023-04-29T10:45:56;90978.75;;;16.66;37.51
3464;BME280;3551;41.578;24.706;2023-04-29T10:48:43;90983.06;;;16.25;37.12
3464;BME280;3551;41.578;24.706;2023-04-29T10:51:10;90986.75;;;15.49;39.03
3464;BME280;3551;41.578;24.706;2023-04-29T10:56:19;90977.75;;;15.68;38.97
3464;BME280;3551;41.578;24.706;2023-04-29T10:58:46;90985.44;;;15.82;38.31
3464;BME280;3551;41.578;24.706;2023-04-29T11:01:13;90984.84;;;16.03;38.91
3464;BME280;3551;41.578;24.706;2023-04-29T11:03:48;90972.00;;;15.53;38.26
3464;BME280;3551;41.578;24.706;2023-04-29T11:06:18;90969.03;;;15.64;37.86
3464;BME280;3551;41.578;24.706;2023-04-29T11:08:45;90963.00;;;15.72;37.63
3464;BME280;3551;41.578;24.706;2023-04-29T11:11:12;90959.88;;;15.74;38.74
3464;BME280;3551;41.578;24.706;2023-04-29T11:13:39;90965.09;;;15.81;38.87
3464;BME280;3551;41.578;24.706;2023-04-29T11:16:06;90967.47;;;15.50;39.02
3464;BME280;3551;41.578;24.706;2023-04-29T11:18:33;90967.75;;;15.23;39.15
3464;BME280;3551;41.578;24.706;2023-04-29T11:21:14;90957.53;;;15.47;39.18
3464;BME280;3551;41.578;24.706;2023-04-29T11:23:40;90953.41;;;15.43;38.59
3464;BME280;3551;41.578;24.706;2023-04-29T11:26:09;90951.50;;;15.85;39.50
3464;BME280;3551;41.578;24.706;2023-04-29T11:28:36;90948.72;;;16.01;38.79
3464;BME280;3551;41.578;24.706;2023-04-29T11:31:03;90952.94;;;16.02;38.81
3464;BME280;3551;41.578;24.706;2023-04-29T11:33:30;90956.50;;;16.24;37.86
3464;BME280;3551;41.578;24.706;2023-04-29T11:35:57;90949.38;;;16.05;37.77
3464;BME280;3551;41.578;24.706;2023-04-29T11:38:26;90950.53;;;15.79;39.54
3464;BME280;3551;41.578;24.706;2023-04-29T11:40:53;90954.63;;;15.83;38.01
3464;BME280;3551;41.578;24.706;2023-04-29T11:43:20;90953.16;;;16.07;38.84
3464;BME280;3551;41.578;24.706;2023-04-29T11:45:49;90953.44;;;15.97;38.20
3464;BME280;3551;41.578;24.706;2023-04-29T11:48:18;90943.06;;;15.70;38.19
3464;BME280;3551;41.578;24.706;2023-04-29T11:50:46;90950.97;;;15.90;38.69
3464;BME280;3551;41.578;24.706;2023-04-29T11:53:12;90945.13;;;15.91;38.54
3464;BME280;3551;41.578;24.706;2023-04-29T11:55:42;90942.00;;;15.93;38.06
3464;BME280;3551;41.578;24.706;2023-04-29T11:58:08;90942.25;;;16.36;37.67
3464;BME280;3551;41.578;24.706;2023-04-29T12:00:35;90944.09;;;16.39;38.58
3464;BME280;3551;41.578;24.706;2023-04-29T12:03:06;90936.53;;;16.59;39.07
3464;BME280;3551;41.578;24.706;2023-04-29T12:05:33;90939.25;;;16.59;39.83
3464;BME280;3551;41.578;24.706;2023-04-29T12:08:00;90934.16;;;16.61;36.59
3464;BME280;3551;41.578;24.706;2023-04-29T12:10:26;90933.16;;;16.80;37.58
3464;BME280;3551;41.578;24.706;2023-04-29T12:12:55;90922.19;;;16.37;37.20
3464;BME280;3551;41.578;24.706;2023-04-29T12:15:21;90914.41;;;16.01;37.49
3464;BME280;3551;41.578;24.706;2023-04-29T12:17:48;90921.09;;;16.22;38.02
3464;BME280;3551;41.578;24.706;2023-04-29T12:20:15;90906.00;;;15.99;37.85
3464;BME280;3551;41.578;24.706;2023-04-29T12:22:42;90918.91;;;15.92;37.86
3464;BME280;3551;41.578;24.706;2023-04-29T12:25:09;90905.44;;;15.92;38.67
3464;BME280;3551;41.578;24.706;2023-04-29T12:27:38;90911.81;;;15.98;37.89
3464;BME280;3551;41.578;24.706;2023-04-29T12:30:07;90912.03;;;16.16;37.74
3464;BME280;3551;41.578;24.706;2023-04-29T12:32:34;90919.34;;;16.53;37.39
3464;BME280;3551;41.578;24.706;2023-04-29T12:35:01;90915.88;;;16.78;36.56
3464;BME280;3551;41.578;24.706;2023-04-29T12:37:28;90917.31;;;16.45;36.89
3464;BME280;3551;41.578;24.706;2023-04-29T12:39:55;90911.81;;;16.10;38.10
3464;BME280;3551;41.578;24.706;2023-04-29T12:42:22;90923.56;;;15.79;39.16
3464;BME280;3551;41.578;24.706;2023-04-29T12:44:48;90926.13;;;15.69;38.67
3464;BME280;3551;41.578;24.706;2023-04-29T12:47:16;90918.28;;;15.88;39.37
3464;BME280;3551;41.578;24.706;2023-04-29T12:49:46;90925.41;;;16.07;38.57
3464;BME280;3551;41.578;24.706;2023-04-29T12:52:14;90920.00;;;15.82;38.78
3464;BME280;3551;41.578;24.706;2023-04-29T12:54:41;90914.81;;;15.87;38.64
3464;BME280;3551;41.578;24.706;2023-04-29T12:57:07;90916.84;;;15.70;39.01
3464;BME280;3551;41.578;24.706;2023-04-29T12:59:35;90911.28;;;16.15;40.03
3464;BME280;3551;41.578;24.706;2023-04-29T13:02:01;90911.69;;;16.39;39.74
3464;BME280;3551;41.578;24.706;2023-04-29T13:04:29;90922.28;;;16.21;39.48
3464;BME280;3551;41.578;24.706;2023-04-29T13:06:56;90907.06;;;16.14;39.59
3464;BME280;3551;41.578;24.706;2023-04-29T13:09:24;90913.53;;;15.92;40.26
3464;BME280;3551;41.578;24.706;2023-04-29T13:11:51;90913.41;;;15.70;39.90
3464;BME280;3551;41.578;24.706;2023-04-29T13:14:18;90906.38;;;15.60;39.87
3464;BME280;3551;41.578;24.706;2023-04-29T13:16:44;90918.84;;;15.54;40.00
3464;BME280;3551;41.578;24.706;2023-04-29T13:19:11;90912.66;;;15.41;39.79